sensor_id;sensor_type;location;lat;lon;timestamp;P1;durP1;ratioP1;P2;durP2;ratioP2
7557;SDS011;3820;51.098;13.716;2023-03-21T00:00:58;49.53;;;27.40;;
7557;SDS011;3820;51.098;13.716;2023-03-21T00:03:25;46.37;;;27.93;;
7557;SDS011;3820;51.098;13.716;2023-03-21T00:05:52;62.30;;;30.50;;
7557;SDS011;3820;51.098;13.716;2023-03-21T00:08:19;58.70;;;29.93;;
7557;SDS011;3820;51.098;13.716;2023-03-21T00:10:47;50.10;;;28.53;;
7557;SDS011;3820;51.098;13.716;2023-03-21T00:13:21;47.17;;;28.30;;
7557;SDS011;3820;51.098;13.716;2023-03-21T00:15:48;47.87;;;27.27;;
7557;SDS011;3820;51.098;13.716;2023-03-21T00:18:34;49.47;;;28.00;;
7557;SDS011;3820;51.098;13.716;2023-03-21T00:21:10;45.93;;;27.37;;
7557;SDS011;3820;51.098;13.716;2023-03-21T00:24:01;49.80;;;27.80;;
7557;SDS011;3820;51.098;13.716;2023-03-21T00:26:28;45.60;;;27.93;;
7557;SDS011;3820;51.098;13.716;2023-03-21T00:28:55;45.23;;;27.37;;
7557;SDS011;3820;51.098;13.716;2023-03-21T00:31:21;43.37;;;27.37;;
7557;SDS011;3820;51.098;13.716;2023-03-21T00:33:48;46.17;;;28.47;;
7557;SDS011;3820;51.098;13.716;2023-03-21T00:36:16;54.90;;;29.67;;
7557;SDS011;3820;51.098;13.716;2023-03-21T00:38:43;55.33;;;31.13;;
7557;SDS011;3820;51.098;13.716;2023-03-21T00:41:10;52.97;;;30.90;;
7557;SDS011;3820;51.098;13.716;2023-03-21T00:43:56;54.20;;;32.60;;
7557;SDS011;3820;51.098;13.716;2023-03-21T00:46:23;56.43;;;31.93;;
7557;SDS011;3820;51.098;13.716;2023-03-21T00:48:55;55.87;;;32.67;;
7557;SDS011;3820;51.098;13.716;2023-03-21T00:51:22;61.67;;;33.83;;
7557;SDS011;3820;51.098;13.716;2023-03-21T00:53:53;56.93;;;33.13;;
7557;SDS011;3820;51.098;13.716;2023-03-21T00:56:21;56.83;;;34.10;;
7557;SDS011;3820;51.098;13.716;2023-03-21T00:58:48;61.80;;;35.60;;
7557;SDS011;3820;51.098;13.716;2023-03-21T01:01:14;62.17;;;35.80;;
7557;SDS011;3820;51.098;13.716;2023-03-21T01:03:41;62.53;;;35.07;;
7557;SDS011;3820;51.098;13.716;2023-03-21T01:06:13;61.10;;;34.73;;
7557;SDS011;3820;51.098;13.716;2023-03-21T01:08:45;62.37;;;35.30;;
7557;SDS011;3820;51.098;13.716;2023-03-21T01:11:23;67.37;;;36.70;;
7557;SDS011;3820;51.098;13.716;2023-03-21T01:13:52;69.93;;;37.30;;
7557;SDS011;3820;51.098;13.716;2023-03-21T01:16:29;68.60;;;38.53;;
7557;SDS011;3820;51.098;13.716;2023-03-21T01:18:56;75.13;;;40.40;;
7557;SDS011;3820;51.098;13.716;2023-03-21T01:21:24;67.93;;;39.47;;
7557;SDS011;3820;51.098;13.716;2023-03-21T01:23:51;67.27;;;39.50;;
7557;SDS011;3820;51.098;13.716;2023-03-21T01:26:18;71.97;;;41.07;;
7557;SDS011;3820;51.098;13.716;2023-03-21T01:28:44;71.37;;;40.37;;
7557;SDS011;3820;51.098;13.716;2023-03-21T01:31:13;73.43;;;40.50;;
7557;SDS011;3820;51.098;13.716;2023-03-21T01:33:41;71.50;;;40.40;;
7557;SDS011;3820;51.098;13.716;2023-03-21T01:36:10;69.00;;;38.60;;
7557;SDS011;3820;51.098;13.716;2023-03-21T01:38:47;73.03;;;41.37;;
7557;SDS011;3820;51.098;13.716;2023-03-21T01:41:17;70.63;;;40.13;;
7557;SDS011;3820;51.098;13.716;2023-03-21T01:44:15;66.50;;;38.93;;
7557;SDS011;3820;51.098;13.716;2023-03-21T01:46:46;71.23;;;39.17;;
7557;SDS011;3820;51.098;13.716;2023-03-21T01:49:40;77.20;;;42.33;;
7557;SDS011;3820;51.098;13.716;2023-03-21T01:52:12;71.83;;;40.40;;
7557;SDS011;3820;51.098;13.716;2023-03-21T01:54:59;73.33;;;41.77;;
7557;SDS011;3820;51.098;13.716;2023-03-21T01:57:27;69.40;;;39.87;;
7557;SDS011;3820;51.098;13.716;2023-03-21T02:00:13;68.63;;;38.23;;
7557;SDS011;3820;51.098;13.716;2023-03-21T02:02:42;72.87;;;41.03;;
7557;SDS011;3820;51.098;13.716;2023-03-21T02:05:23;69.37;;;39.37;;
7557;SDS011;3820;51.098;13.716;2023-03-21T02:07:55;66.87;;;38.37;;
7557;SDS011;3820;51.098;13.716;2023-03-21T02:10:22;74.53;;;38.23;;
7557;SDS011;3820;51.098;13.716;2023-03-21T02:12:49;73.83;;;40.63;;
7557;SDS011;3820;51.098;13.716;2023-03-21T02:15:17;76.57;;;40.67;;
7557;SDS011;3820;51.098;13.716;2023-03-21T02:28:45;63.83;;;35.00;;
7557;SDS011;3820;51.098;13.716;2023-03-21T02:39:28;68.47;;;38.13;;
7557;SDS011;3820;51.098;13.716;2023-03-21T02:45:18;73.23;;;38.07;;
7557;SDS011;3820;51.098;13.716;2023-03-21T02:47:48;65.80;;;37.87;;
7557;SDS011;3820;51.098;13.716;2023-03-21T02:52:52;64.57;;;38.60;;
7557;SDS011;3820;51.098;13.716;2023-03-21T02:55:21;64.57;;;38.33;;
7557;SDS011;3820;51.098;13.716;2023-03-21T02:57:51;66.33;;;38.63;;
7557;SDS011;3820;51.098;13.716;2023-03-21T03:00:20;62.33;;;38.83;;
7557;SDS011;3820;51.098;13.716;2023-03-21T03:02:50;69.00;;;41.87;;
7557;SDS011;3820;51.098;13.716;2023-03-21T03:05:33;61.23;;;38.57;;
7557;SDS011;3820;51.098;13.716;2023-03-21T03:11:28;62.40;;;39.10;;
7557;SDS011;3820;51.098;13.716;2023-03-21T03:14:06;67.97;;;40.70;;
7557;SDS011;3820;51.098;13.716;2023-03-21T03:20:07;65.83;;;40.20;;
7557;SDS011;3820;51.098;13.716;2023-03-21T03:25:40;71.57;;;41.37;;
7557;SDS011;3820;51.098;13.716;2023-03-21T03:28:14;68.90;;;41.50;;
7557;SDS011;3820;51.098;13.716;2023-03-21T03:30:44;74.13;;;42.57;;
7557;SDS011;3820;51.098;13.716;2023-03-21T03:33:32;71.13;;;41.50;;
7557;SDS011;3820;51.098;13.716;2023-03-21T03:36:00;71.77;;;41.67;;
7557;SDS011;3820;51.098;13.716;2023-03-21T03:38:32;73.77;;;42.70;;
7557;SDS011;3820;51.098;13.716;2023-03-21T03:41:06;73.47;;;41.73;;
7557;SDS011;3820;51.098;13.716;2023-03-21T03:43:55;72.93;;;42.90;;
7557;SDS011;3820;51.098;13.716;2023-03-21T03:46:39;71.17;;;42.67;;
7557;SDS011;3820;51.098;13.716;2023-03-21T03:49:16;71.80;;;42.83;;
7557;SDS011;3820;51.098;13.716;2023-03-21T03:54:26;71.23;;;42.77;;
7557;SDS011;3820;51.098;13.716;2023-03-21T03:56:55;73.97;;;43.10;;
7557;SDS011;3820;51.098;13.716;2023-03-21T03:59:23;75.40;;;42.13;;
7557;SDS011;3820;51.098;13.716;2023-03-21T04:01:50;78.20;;;45.20;;
7557;SDS011;3820;51.098;13.716;2023-03-21T04:04:17;72.20;;;43.20;;
7557;SDS011;3820;51.098;13.716;2023-03-21T04:06:43;71.23;;;42.60;;
7557;SDS011;3820;51.098;13.716;2023-03-21T04:09:17;72.73;;;43.90;;
7557;SDS011;3820;51.098;13.716;2023-03-21T04:11:48;78.57;;;43.80;;
7557;SDS011;3820;51.098;13.716;2023-03-21T04:14:15;75.10;;;43.80;;
7557;SDS011;3820;51.098;13.716;2023-03-21T04:16:42;77.33;;;43.80;;
7557;SDS011;3820;51.098;13.716;2023-03-21T04:19:09;75.93;;;44.50;;
7557;SDS011;3820;51.098;13.716;2023-03-21T04:21:35;76.60;;;45.03;;
7557;SDS011;3820;51.098;13.716;2023-03-21T04:24:02;78.17;;;44.70;;
7557;SDS011;3820;51.098;13.716;2023-03-21T04:26:29;73.23;;;44.10;;
7557;SDS011;3820;51.098;13.716;2023-03-21T04:28:59;73.60;;;42.43;;
7557;SDS011;3820;51.098;13.716;2023-03-21T04:31:29;77.10;;;44.47;;
7557;SDS011;3820;51.098;13.716;2023-03-21T04:34:00;73.53;;;43.83;;
7557;SDS011;3820;51.098;13.716;2023-03-21T04:36:28;77.03;;;43.70;;
7557;SDS011;3820;51.098;13.716;2023-03-21T04:39:04;77.27;;;45.00;;
7557;SDS011;3820;51.098;13.716;2023-03-21T04:41:38;74.27;;;43.67;;
7557;SDS011;3820;51.098;13.716;2023-03-21T04:44:05;71.33;;;42.17;;
7557;SDS011;3820;51.098;13.716;2023-03-21T04:46:32;73.47;;;42.43;;
7557;SDS011;3820;51.098;13.716;2023-03-21T04:48:59;72.90;;;43.37;;
7557;SDS011;3820;51.098;13.716;2023-03-21T04:51:26;73.70;;;44.20;;
7557;SDS011;3820;51.098;13.716;2023-03-21T04:53:53;71.93;;;42.80;;
7557;SDS011;3820;51.098;13.716;2023-03-21T04:56:23;70.33;;;42.50;;
7557;SDS011;3820;51.098;13.716;2023-03-21T04:58:59;81.90;;;44.10;;
7557;SDS011;3820;51.098;13.716;2023-03-21T05:01:27;76.07;;;43.07;;
7557;SDS011;3820;51.098;13.716;2023-03-21T05:03:57;79.37;;;45.87;;
7557;SDS011;3820;51.098;13.716;2023-03-21T05:06:25;77.30;;;44.70;;
7557;SDS011;3820;51.098;13.716;2023-03-21T05:08:53;74.50;;;44.47;;
7557;SDS011;3820;51.098;13.716;2023-03-21T05:11:31;70.10;;;42.90;;
7557;SDS011;3820;51.098;13.716;2023-03-21T05:14:01;78.40;;;45.17;;
7557;SDS011;3820;51.098;13.716;2023-03-21T05:16:27;70.30;;;43.33;;
7557;SDS011;3820;51.098;13.716;2023-03-21T05:18:56;75.63;;;44.10;;
7557;SDS011;3820;51.098;13.716;2023-03-21T05:21:24;72.60;;;43.50;;
7557;SDS011;3820;51.098;13.716;2023-03-21T05:23:55;76.27;;;43.67;;
7557;SDS011;3820;51.098;13.716;2023-03-21T05:26:23;74.33;;;44.17;;
7557;SDS011;3820;51.098;13.716;2023-03-21T05:28:50;75.47;;;43.37;;
7557;SDS011;3820;51.098;13.716;2023-03-21T05:31:17;67.27;;;41.37;;
7557;SDS011;3820;51.098;13.716;2023-03-21T05:33:44;71.40;;;41.77;;
7557;SDS011;3820;51.098;13.716;2023-03-21T05:36:11;65.57;;;40.63;;
7557;SDS011;3820;51.098;13.716;2023-03-21T05:38:37;64.63;;;38.77;;
7557;SDS011;3820;51.098;13.716;2023-03-21T05:41:07;68.40;;;39.83;;
7557;SDS011;3820;51.098;13.716;2023-03-21T05:43:34;61.07;;;37.53;;
7557;SDS011;3820;51.098;13.716;2023-03-21T05:46:01;59.70;;;37.00;;
7557;SDS011;3820;51.098;13.716;2023-03-21T05:48:28;54.97;;;35.03;;
7557;SDS011;3820;51.098;13.716;2023-03-21T05:50:55;59.10;;;35.87;;
7557;SDS011;3820;51.098;13.716;2023-03-21T05:53:22;55.17;;;34.13;;
7557;SDS011;3820;51.098;13.716;2023-03-21T05:55:49;55.57;;;34.27;;
7557;SDS011;3820;51.098;13.716;2023-03-21T05:58:15;49.40;;;31.47;;
7557;SDS011;3820;51.098;13.716;2023-03-21T06:00:42;46.43;;;29.93;;
7557;SDS011;3820;51.098;13.716;2023-03-21T06:03:08;44.13;;;28.17;;
7557;SDS011;3820;51.098;13.716;2023-03-21T06:05:35;42.70;;;27.20;;
7557;SDS011;3820;51.098;13.716;2023-03-21T06:08:02;43.00;;;27.60;;
7557;SDS011;3820;51.098;13.716;2023-03-21T06:10:29;40.93;;;26.87;;
7557;SDS011;3820;51.098;13.716;2023-03-21T06:12:56;40.10;;;26.43;;
7557;SDS011;3820;51.098;13.716;2023-03-21T06:15:23;37.70;;;23.70;;
7557;SDS011;3820;51.098;13.716;2023-03-21T06:17:50;36.07;;;23.33;;
7557;SDS011;3820;51.098;13.716;2023-03-21T06:20:17;37.73;;;24.20;;
7557;SDS011;3820;51.098;13.716;2023-03-21T06:22:44;39.93;;;24.30;;
7557;SDS011;3820;51.098;13.716;2023-03-21T06:25:11;36.67;;;21.93;;
7557;SDS011;3820;51.098;13.716;2023-03-21T06:27:38;31.30;;;19.97;;
7557;SDS011;3820;51.098;13.716;2023-03-21T06:30:05;30.87;;;18.90;;
7557;SDS011;3820;51.098;13.716;2023-03-21T06:32:33;28.17;;;19.27;;
7557;SDS011;3820;51.098;13.716;2023-03-21T06:34:59;27.23;;;18.20;;
7557;SDS011;3820;51.098;13.716;2023-03-21T06:37:26;24.97;;;16.93;;
7557;SDS011;3820;51.098;13.716;2023-03-21T06:39:53;24.80;;;16.77;;
7557;SDS011;3820;51.098;13.716;2023-03-21T06:42:21;29.07;;;17.07;;
7557;SDS011;3820;51.098;13.716;2023-03-21T06:44:48;29.53;;;16.97;;
7557;SDS011;3820;51.098;13.716;2023-03-21T06:47:14;26.07;;;17.63;;
7557;SDS011;3820;51.098;13.716;2023-03-21T06:49:41;27.37;;;17.30;;
7557;SDS011;3820;51.098;13.716;2023-03-21T06:52:09;25.43;;;16.43;;
7557;SDS011;3820;51.098;13.716;2023-03-21T06:54:36;24.80;;;17.07;;
7557;SDS011;3820;51.098;13.716;2023-03-21T06:57:03;26.23;;;17.20;;
7557;SDS011;3820;51.098;13.716;2023-03-21T06:59:30;25.37;;;15.43;;
7557;SDS011;3820;51.098;13.716;2023-03-21T07:01:56;23.17;;;15.07;;
7557;SDS011;3820;51.098;13.716;2023-03-21T07:04:23;20.67;;;15.23;;
7557;SDS011;3820;51.098;13.716;2023-03-21T07:06:49;22.10;;;15.17;;
7557;SDS011;3820;51.098;13.716;2023-03-21T07:09:17;20.90;;;15.43;;
7557;SDS011;3820;51.098;13.716;2023-03-21T07:11:45;21.07;;;14.53;;
7557;SDS011;3820;51.098;13.716;2023-03-21T07:14:12;22.83;;;15.23;;
7557;SDS011;3820;51.098;13.716;2023-03-21T07:16:38;18.97;;;13.73;;
7557;SDS011;3820;51.098;13.716;2023-03-21T07:19:05;22.30;;;14.67;;
7557;SDS011;3820;51.098;13.716;2023-03-21T07:21:32;22.00;;;14.57;;
7557;SDS011;3820;51.098;13.716;2023-03-21T07:23:59;22.10;;;14.03;;
7557;SDS011;3820;51.098;13.716;2023-03-21T07:26:26;20.77;;;15.03;;
7557;SDS011;3820;51.098;13.716;2023-03-21T07:28:53;19.30;;;15.23;;
7557;SDS011;3820;51.098;13.716;2023-03-21T07:31:19;24.40;;;16.20;;
7557;SDS011;3820;51.098;13.716;2023-03-21T07:33:46;23.93;;;15.97;;
7557;SDS011;3820;51.098;13.716;2023-03-21T07:36:13;27.50;;;19.87;;
7557;SDS011;3820;51.098;13.716;2023-03-21T07:38:41;23.63;;;17.03;;
7557;SDS011;3820;51.098;13.716;2023-03-21T07:41:08;24.33;;;15.57;;
7557;SDS011;3820;51.098;13.716;2023-03-21T07:43:35;24.37;;;15.60;;
7557;SDS011;3820;51.098;13.716;2023-03-21T07:46:04;25.43;;;15.67;;
7557;SDS011;3820;51.098;13.716;2023-03-21T07:48:31;24.77;;;15.40;;
7557;SDS011;3820;51.098;13.716;2023-03-21T07:50:58;24.13;;;15.27;;
7557;SDS011;3820;51.098;13.716;2023-03-21T07:53:25;26.83;;;13.97;;
7557;SDS011;3820;51.098;13.716;2023-03-21T07:55:52;23.60;;;14.20;;
7557;SDS011;3820;51.098;13.716;2023-03-21T07:58:23;20.90;;;14.30;;
7557;SDS011;3820;51.098;13.716;2023-03-21T08:00:50;21.90;;;13.73;;
7557;SDS011;3820;51.098;13.716;2023-03-21T08:03:18;23.43;;;14.53;;
7557;SDS011;3820;51.098;13.716;2023-03-21T08:05:45;20.37;;;14.27;;
7557;SDS011;3820;51.098;13.716;2023-03-21T08:08:12;23.27;;;14.70;;
7557;SDS011;3820;51.098;13.716;2023-03-21T08:10:41;21.73;;;13.53;;
7557;SDS011;3820;51.098;13.716;2023-03-21T08:13:08;19.33;;;14.00;;
7557;SDS011;3820;51.098;13.716;2023-03-21T08:15:34;19.43;;;14.20;;
7557;SDS011;3820;51.098;13.716;2023-03-21T08:18:01;21.23;;;13.47;;
7557;SDS011;3820;51.098;13.716;2023-03-21T08:20:28;21.40;;;13.00;;
7557;SDS011;3820;51.098;13.716;2023-03-21T08:22:54;19.97;;;12.50;;
7557;SDS011;3820;51.098;13.716;2023-03-21T08:25:21;20.27;;;13.30;;
7557;SDS011;3820;51.098;13.716;2023-03-21T08:27:48;18.30;;;12.53;;
7557;SDS011;3820;51.098;13.716;2023-03-21T08:30:17;23.23;;;13.10;;
7557;SDS011;3820;51.098;13.716;2023-03-21T08:32:46;18.20;;;11.10;;
7557;SDS011;3820;51.098;13.716;2023-03-21T08:35:14;16.67;;;12.40;;
7557;SDS011;3820;51.098;13.716;2023-03-21T08:37:43;19.97;;;12.30;;
7557;SDS011;3820;51.098;13.716;2023-03-21T08:40:14;17.10;;;11.60;;
7557;SDS011;3820;51.098;13.716;2023-03-21T08:42:42;16.10;;;11.60;;
7557;SDS011;3820;51.098;13.716;2023-03-21T08:45:10;19.97;;;11.53;;
7557;SDS011;3820;51.098;13.716;2023-03-21T08:47:37;19.80;;;11.07;;
7557;SDS011;3820;51.098;13.716;2023-03-21T08:50:04;17.93;;;10.93;;
7557;SDS011;3820;51.098;13.716;2023-03-21T08:52:32;14.55;;;10.73;;
7557;SDS011;3820;51.098;13.716;2023-03-21T08:54:59;16.50;;;10.10;;
7557;SDS011;3820;51.098;13.716;2023-03-21T08:57:28;15.60;;;9.70;;
7557;SDS011;3820;51.098;13.716;2023-03-21T08:59:55;16.30;;;10.40;;
7557;SDS011;3820;51.098;13.716;2023-03-21T09:02:21;14.93;;;9.90;;
7557;SDS011;3820;51.098;13.716;2023-03-21T09:04:49;16.20;;;10.30;;
7557;SDS011;3820;51.098;13.716;2023-03-21T09:07:18;15.17;;;10.07;;
7557;SDS011;3820;51.098;13.716;2023-03-21T09:09:45;15.40;;;9.63;;
7557;SDS011;3820;51.098;13.716;2023-03-21T09:12:23;13.73;;;9.73;;
7557;SDS011;3820;51.098;13.716;2023-03-21T09:14:50;16.83;;;10.25;;
7557;SDS011;3820;51.098;13.716;2023-03-21T09:17:18;13.63;;;9.27;;
7557;SDS011;3820;51.098;13.716;2023-03-21T09:19:46;12.73;;;9.27;;
7557;SDS011;3820;51.098;13.716;2023-03-21T09:22:16;13.80;;;9.93;;
7557;SDS011;3820;51.098;13.716;2023-03-21T09:24:43;15.30;;;9.37;;
7557;SDS011;3820;51.098;13.716;2023-03-21T09:27:15;17.03;;;10.43;;
7557;SDS011;3820;51.098;13.716;2023-03-21T09:29:45;14.20;;;9.33;;
7557;SDS011;3820;51.098;13.716;2023-03-21T09:32:11;15.43;;;9.30;;
7557;SDS011;3820;51.098;13.716;2023-03-21T09:34:38;13.73;;;9.35;;
7557;SDS011;3820;51.098;13.716;2023-03-21T09:37:07;12.33;;;9.43;;
7557;SDS011;3820;51.098;13.716;2023-03-21T09:39:39;14.27;;;9.77;;
7557;SDS011;3820;51.098;13.716;2023-03-21T09:42:12;13.35;;;9.65;;
7557;SDS011;3820;51.098;13.716;2023-03-21T09:47:39;12.98;;;8.48;;
7557;SDS011;3820;51.098;13.716;2023-03-21T09:50:23;10.68;;;8.18;;
7557;SDS011;3820;51.098;13.716;2023-03-21T09:53:04;13.18;;;8.30;;
7557;SDS011;3820;51.098;13.716;2023-03-21T09:55:36;12.07;;;8.02;;
7557;SDS011;3820;51.098;13.716;2023-03-21T10:01:02;12.15;;;7.95;;
7557;SDS011;3820;51.098;13.716;2023-03-21T10:03:47;11.73;;;8.00;;
7557;SDS011;3820;51.098;13.716;2023-03-21T10:06:18;12.05;;;8.15;;
7557;SDS011;3820;51.098;13.716;2023-03-21T10:09:04;12.77;;;8.75;;
7557;SDS011;3820;51.098;13.716;2023-03-21T10:11:41;11.50;;;8.68;;
7557;SDS011;3820;51.098;13.716;2023-03-21T10:16:58;11.05;;;9.13;;
7557;SDS011;3820;51.098;13.716;2023-03-21T10:19:27;12.20;;;8.77;;
7557;SDS011;3820;51.098;13.716;2023-03-21T10:21:54;12.48;;;8.85;;
7557;SDS011;3820;51.098;13.716;2023-03-21T10:24:27;13.88;;;9.15;;
7557;SDS011;3820;51.098;13.716;2023-03-21T10:26:55;14.93;;;9.25;;
7557;SDS011;3820;51.098;13.716;2023-03-21T10:29:26;14.02;;;9.18;;
7557;SDS011;3820;51.098;13.716;2023-03-21T10:31:56;18.02;;;10.15;;
7557;SDS011;3820;51.098;13.716;2023-03-21T10:34:35;12.93;;;9.07;;
7557;SDS011;3820;51.098;13.716;2023-03-21T10:37:03;14.00;;;9.43;;
7557;SDS011;3820;51.098;13.716;2023-03-21T10:39:37;14.40;;;9.77;;
7557;SDS011;3820;51.098;13.716;2023-03-21T10:42:06;11.38;;;9.20;;
7557;SDS011;3820;51.098;13.716;2023-03-21T10:45:02;12.15;;;8.50;;
7557;SDS011;3820;51.098;13.716;2023-03-21T10:47:40;10.73;;;8.52;;
7557;SDS011;3820;51.098;13.716;2023-03-21T10:50:10;12.98;;;9.75;;
7557;SDS011;3820;51.098;13.716;2023-03-21T10:52:44;14.35;;;9.60;;
7557;SDS011;3820;51.098;13.716;2023-03-21T10:55:47;10.63;;;8.25;;
7557;SDS011;3820;51.098;13.716;2023-03-21T10:58:07;11.70;;;8.25;;
7557;SDS011;3820;51.098;13.716;2023-03-21T11:00:37;11.52;;;7.75;;
7557;SDS011;3820;51.098;13.716;2023-03-21T11:03:12;11.25;;;7.65;;
7557;SDS011;3820;51.098;13.716;2023-03-21T11:05:46;11.70;;;7.95;;
7557;SDS011;3820;51.098;13.716;2023-03-21T11:08:16;9.15;;;7.43;;
7557;SDS011;3820;51.098;13.716;2023-03-21T11:13:22;10.35;;;7.35;;
7557;SDS011;3820;51.098;13.716;2023-03-21T11:15:55;8.43;;;6.63;;
7557;SDS011;3820;51.098;13.716;2023-03-21T11:18:25;9.68;;;7.25;;
7557;SDS011;3820;51.098;13.716;2023-03-21T11:20:56;6.70;;;5.93;;
7557;SDS011;3820;51.098;13.716;2023-03-21T11:23:25;7.10;;;6.40;;
7557;SDS011;3820;51.098;13.716;2023-03-21T11:25:53;8.25;;;6.68;;
7557;SDS011;3820;51.098;13.716;2023-03-21T11:28:21;9.73;;;7.30;;
7557;SDS011;3820;51.098;13.716;2023-03-21T11:30:56;9.40;;;6.82;;
7557;SDS011;3820;51.098;13.716;2023-03-21T11:33:31;8.32;;;6.40;;
7557;SDS011;3820;51.098;13.716;2023-03-21T11:36:05;8.80;;;6.55;;
7557;SDS011;3820;51.098;13.716;2023-03-21T11:38:53;6.75;;;6.10;;
7557;SDS011;3820;51.098;13.716;2023-03-21T11:41:23;8.30;;;6.88;;
7557;SDS011;3820;51.098;13.716;2023-03-21T11:43:53;7.85;;;6.68;;
7557;SDS011;3820;51.098;13.716;2023-03-21T11:46:25;7.63;;;6.25;;
7557;SDS011;3820;51.098;13.716;2023-03-21T11:48:53;7.60;;;6.50;;
7557;SDS011;3820;51.098;13.716;2023-03-21T11:57:16;7.40;;;6.20;;
7557;SDS011;3820;51.098;13.716;2023-03-21T12:05:34;9.27;;;6.25;;
7557;SDS011;3820;51.098;13.716;2023-03-21T12:14:00;6.68;;;5.53;;
7557;SDS011;3820;51.098;13.716;2023-03-21T12:16:48;7.35;;;5.82;;
7557;SDS011;3820;51.098;13.716;2023-03-21T12:22:33;5.78;;;5.18;;
7557;SDS011;3820;51.098;13.716;2023-03-21T12:25:23;8.38;;;5.90;;
7557;SDS011;3820;51.098;13.716;2023-03-21T12:36:18;5.18;;;4.68;;
7557;SDS011;3820;51.098;13.716;2023-03-21T12:38:53;5.78;;;4.38;;
7557;SDS011;3820;51.098;13.716;2023-03-21T12:41:43;6.15;;;4.60;;
7557;SDS011;3820;51.098;13.716;2023-03-21T12:44:14;6.38;;;4.07;;
7557;SDS011;3820;51.098;13.716;2023-03-21T12:49:46;5.55;;;4.60;;
7557;SDS011;3820;51.098;13.716;2023-03-21T12:52:15;5.90;;;4.78;;
7557;SDS011;3820;51.098;13.716;2023-03-21T12:54:46;4.72;;;4.25;;
7557;SDS011;3820;51.098;13.716;2023-03-21T12:59:46;4.32;;;3.90;;
7557;SDS011;3820;51.098;13.716;2023-03-21T13:02:19;5.28;;;4.43;;
7557;SDS011;3820;51.098;13.716;2023-03-21T13:07:40;4.57;;;4.13;;
7557;SDS011;3820;51.098;13.716;2023-03-21T13:10:16;5.28;;;4.20;;
7557;SDS011;3820;51.098;13.716;2023-03-21T13:12:54;4.55;;;4.15;;
7557;SDS011;3820;51.098;13.716;2023-03-21T13:16:17;5.95;;;4.78;;
7557;SDS011;3820;51.098;13.716;2023-03-21T13:18:30;5.10;;;4.35;;
7557;SDS011;3820;51.098;13.716;2023-03-21T13:21:43;4.68;;;4.10;;
7557;SDS011;3820;51.098;13.716;2023-03-21T13:24:23;4.60;;;4.18;;
7557;SDS011;3820;51.098;13.716;2023-03-21T13:27:02;4.63;;;4.03;;
7557;SDS011;3820;51.098;13.716;2023-03-21T13:29:45;6.00;;;4.20;;
7557;SDS011;3820;51.098;13.716;2023-03-21T13:32:21;6.22;;;4.25;;
7557;SDS011;3820;51.098;13.716;2023-03-21T13:34:58;5.60;;;3.67;;
7557;SDS011;3820;51.098;13.716;2023-03-21T13:37:33;6.05;;;4.32;;
7557;SDS011;3820;51.098;13.716;2023-03-21T13:40:06;4.63;;;3.70;;
7557;SDS011;3820;51.098;13.716;2023-03-21T13:42:42;5.57;;;3.85;;
7557;SDS011;3820;51.098;13.716;2023-03-21T13:45:10;5.03;;;3.60;;
7557;SDS011;3820;51.098;13.716;2023-03-21T13:47:57;5.60;;;4.10;;
7557;SDS011;3820;51.098;13.716;2023-03-21T13:50:27;5.68;;;3.83;;
7557;SDS011;3820;51.098;13.716;2023-03-21T13:53:17;5.53;;;3.45;;
7557;SDS011;3820;51.098;13.716;2023-03-21T13:55:47;5.35;;;3.55;;
7557;SDS011;3820;51.098;13.716;2023-03-21T14:03:56;4.25;;;3.30;;
7557;SDS011;3820;51.098;13.716;2023-03-21T14:06:29;4.82;;;3.53;;
7557;SDS011;3820;51.098;13.716;2023-03-21T14:09:01;5.07;;;3.83;;
7557;SDS011;3820;51.098;13.716;2023-03-21T14:11:30;7.22;;;3.92;;
7557;SDS011;3820;51.098;13.716;2023-03-21T14:13:58;6.30;;;3.92;;
7557;SDS011;3820;51.098;13.716;2023-03-21T14:16:26;7.07;;;3.85;;
7557;SDS011;3820;51.098;13.716;2023-03-21T14:19:04;4.68;;;3.60;;
7557;SDS011;3820;51.098;13.716;2023-03-21T14:21:32;5.18;;;3.63;;
7557;SDS011;3820;51.098;13.716;2023-03-21T14:24:05;4.05;;;3.50;;
7557;SDS011;3820;51.098;13.716;2023-03-21T14:26:36;5.57;;;4.20;;
7557;SDS011;3820;51.098;13.716;2023-03-21T14:29:06;7.57;;;3.40;;
7557;SDS011;3820;51.098;13.716;2023-03-21T14:31:50;4.38;;;3.45;;
7557;SDS011;3820;51.098;13.716;2023-03-21T14:34:18;4.15;;;3.33;;
7557;SDS011;3820;51.098;13.716;2023-03-21T14:36:45;4.00;;;3.45;;
7557;SDS011;3820;51.098;13.716;2023-03-21T14:39:26;5.65;;;3.85;;
7557;SDS011;3820;51.098;13.716;2023-03-21T14:42:01;4.82;;;3.40;;
7557;SDS011;3820;51.098;13.716;2023-03-21T14:44:37;4.93;;;3.70;;
7557;SDS011;3820;51.098;13.716;2023-03-21T14:47:27;4.88;;;4.10;;
7557;SDS011;3820;51.098;13.716;2023-03-21T14:49:55;5.13;;;3.70;;
7557;SDS011;3820;51.098;13.716;2023-03-21T14:52:26;5.07;;;3.13;;
7557;SDS011;3820;51.098;13.716;2023-03-21T14:54:56;4.97;;;3.70;;
7557;SDS011;3820;51.098;13.716;2023-03-21T14:57:24;3.45;;;2.97;;
7557;SDS011;3820;51.098;13.716;2023-03-21T14:59:55;3.30;;;2.95;;
7557;SDS011;3820;51.098;13.716;2023-03-21T15:02:25;3.88;;;3.20;;
7557;SDS011;3820;51.098;13.716;2023-03-21T15:05:06;4.00;;;3.08;;
7557;SDS011;3820;51.098;13.716;2023-03-21T15:07:42;5.40;;;3.38;;
7557;SDS011;3820;51.098;13.716;2023-03-21T15:10:13;4.15;;;3.15;;
7557;SDS011;3820;51.098;13.716;2023-03-21T15:12:54;4.93;;;3.50;;
7557;SDS011;3820;51.098;13.716;2023-03-21T15:15:23;6.78;;;3.70;;
7557;SDS011;3820;51.098;13.716;2023-03-21T15:17:52;5.30;;;3.25;;
7557;SDS011;3820;51.098;13.716;2023-03-21T15:20:23;8.05;;;3.20;;
7557;SDS011;3820;51.098;13.716;2023-03-21T15:22:56;8.13;;;3.83;;
7557;SDS011;3820;51.098;13.716;2023-03-21T15:25:28;5.90;;;3.95;;
7557;SDS011;3820;51.098;13.716;2023-03-21T15:27:56;5.00;;;3.70;;
7557;SDS011;3820;51.098;13.716;2023-03-21T15:30:24;4.20;;;3.80;;
7557;SDS011;3820;51.098;13.716;2023-03-21T15:32:54;5.90;;;3.88;;
7557;SDS011;3820;51.098;13.716;2023-03-21T15:35:25;5.07;;;3.95;;
7557;SDS011;3820;51.098;13.716;2023-03-21T15:37:54;7.20;;;3.95;;
7557;SDS011;3820;51.098;13.716;2023-03-21T15:40:29;5.32;;;3.60;;
7557;SDS011;3820;51.098;13.716;2023-03-21T15:45:32;5.45;;;3.88;;
7557;SDS011;3820;51.098;13.716;2023-03-21T15:48:06;5.13;;;3.90;;
7557;SDS011;3820;51.098;13.716;2023-03-21T15:50:36;5.38;;;4.13;;
7557;SDS011;3820;51.098;13.716;2023-03-21T15:53:05;6.00;;;4.15;;
7557;SDS011;3820;51.098;13.716;2023-03-21T15:55:56;5.93;;;4.15;;
7557;SDS011;3820;51.098;13.716;2023-03-21T15:58:31;5.45;;;4.28;;
7557;SDS011;3820;51.098;13.716;2023-03-21T16:01:05;6.93;;;4.13;;
7557;SDS011;3820;51.098;13.716;2023-03-21T16:03:34;8.05;;;3.75;;
7557;SDS011;3820;51.098;13.716;2023-03-21T16:11:24;7.28;;;3.80;;
7557;SDS011;3820;51.098;13.716;2023-03-21T16:13:53;20.40;;;3.80;;
7557;SDS011;3820;51.098;13.716;2023-03-21T16:16:22;5.50;;;3.55;;
7557;SDS011;3820;51.098;13.716;2023-03-21T16:18:50;6.32;;;3.45;;
7557;SDS011;3820;51.098;13.716;2023-03-21T16:21:17;4.85;;;4.00;;
7557;SDS011;3820;51.098;13.716;2023-03-21T16:23:47;10.77;;;4.20;;
7557;SDS011;3820;51.098;13.716;2023-03-21T16:26:14;4.63;;;4.13;;
7557;SDS011;3820;51.098;13.716;2023-03-21T16:28:43;6.10;;;3.83;;
7557;SDS011;3820;51.098;13.716;2023-03-21T16:31:12;6.70;;;3.80;;
7557;SDS011;3820;51.098;13.716;2023-03-21T16:33:41;6.45;;;4.20;;
7557;SDS011;3820;51.098;13.716;2023-03-21T16:36:11;4.40;;;3.63;;
7557;SDS011;3820;51.098;13.716;2023-03-21T16:38:46;4.60;;;3.80;;
7557;SDS011;3820;51.098;13.716;2023-03-21T16:41:18;5.85;;;4.10;;
7557;SDS011;3820;51.098;13.716;2023-03-21T16:43:46;6.10;;;4.47;;
7557;SDS011;3820;51.098;13.716;2023-03-21T16:46:16;6.93;;;4.50;;